sensor_id;sensor_type;location;lat;lon;timestamp;temperature;humidity
3134;DHT22;1577;49.912;10.924;2023-03-01T07:22:21;0.40;99.90
3134;DHT22;1577;49.912;10.924;2023-03-01T07:24:47;0.90;99.90
3134;DHT22;1577;49.912;10.924;2023-03-01T07:27:12;1.30;99.90
3134;DHT22;1577;49.912;10.924;2023-03-01T07:29:39;1.80;99.90
3134;DHT22;1577;49.912;10.924;2023-03-01T07:32:06;2.40;99.90
3134;DHT22;1577;49.912;10.924;2023-03-01T07:34:32;3.00;99.90
3134;DHT22;1577;49.912;10.924;2023-03-01T07:36:58;3.60;99.90
3134;DHT22;1577;49.912;10.924;2023-03-01T07:39:27;4.30;99.90
3134;DHT22;1577;49.912;10.924;2023-03-01T07:41:52;4.90;99.90
3134;DHT22;1577;49.912;10.924;2023-03-01T07:44:21;5.60;99.90
3134;DHT22;1577;49.912;10.924;2023-03-01T07:46:47;6.30;99.90
3134;DHT22;1577;49.912;10.924;2023-03-01T07:49:13;6.30;97.90
3134;DHT22;1577;49.912;10.924;2023-03-01T07:51:38;6.20;97.30
3134;DHT22;1577;49.912;10.924;2023-03-01T07:54:04;5.90;97.10
3134;DHT22;1577;49.912;10.924;2023-03-01T07:56:30;5.80;97.30
3134;DHT22;1577;49.912;10.924;2023-03-01T07:58:55;5.70;97.30
3134;DHT22;1577;49.912;10.924;2023-03-01T08:01:21;5.70;96.90
3134;DHT22;1577;49.912;10.924;2023-03-01T08:03:47;5.70;97.30
3134;DHT22;1577;49.912;10.924;2023-03-01T08:06:15;6.20;97.40
3134;DHT22;1577;49.912;10.924;2023-03-01T08:08:41;6.40;96.30
3134;DHT22;1577;49.912;10.924;2023-03-01T08:11:09;6.70;96.20
3134;DHT22;1577;49.912;10.924;2023-03-01T08:13:35;6.90;95.90
3134;DHT22;1577;49.912;10.924;2023-03-01T08:16:08;6.70;94.60
3134;DHT22;1577;49.912;10.924;2023-03-01T08:18:35;6.30;94.80
3134;DHT22;1577;49.912;10.924;2023-03-01T08:21:06;6.20;95.40
3134;DHT22;1577;49.912;10.924;2023-03-01T08:23:32;6.40;95.50
3134;DHT22;1577;49.912;10.924;2023-03-01T08:26:15;6.70;95.50
3134;DHT22;1577;49.912;10.924;2023-03-01T08:28:41;6.80;94.80
3134;DHT22;1577;49.912;10.924;2023-03-01T08:33:43;6.90;94.10
3134;DHT22;1577;49.912;10.924;2023-03-01T08:36:09;6.70;93.70
3134;DHT22;1577;49.912;10.924;2023-03-01T08:38:35;6.70;94.20
3134;DHT22;1577;49.912;10.924;2023-03-01T08:41:02;6.90;94.40
3134;DHT22;1577;49.912;10.924;2023-03-01T08:43:28;7.10;94.30
3134;DHT22;1577;49.912;10.924;2023-03-01T08:45:54;7.30;95.00
3134;DHT22;1577;49.912;10.924;2023-03-01T08:48:20;7.50;95.40
3134;DHT22;1577;49.912;10.924;2023-03-01T08:50:46;7.90;95.60
3134;DHT22;1577;49.912;10.924;2023-03-01T08:53:12;8.40;95.10
3134;DHT22;1577;49.912;10.924;2023-03-01T08:55:37;8.60;94.70
3134;DHT22;1577;49.912;10.924;2023-03-01T08:58:03;8.60;92.60
3134;DHT22;1577;49.912;10.924;2023-03-01T09:00:28;8.50;92.10
3134;DHT22;1577;49.912;10.924;2023-03-01T09:02:54;8.30;91.80
3134;DHT22;1577;49.912;10.924;2023-03-01T09:05:20;7.90;91.70
3134;DHT22;1577;49.912;10.924;2023-03-01T09:07:45;7.40;92.00
3134;DHT22;1577;49.912;10.924;2023-03-01T09:10:11;7.10;92.70
3134;DHT22;1577;49.912;10.924;2023-03-01T09:12:36;6.90;92.60
3134;DHT22;1577;49.912;10.924;2023-03-01T09:15:03;7.00;93.20
3134;DHT22;1577;49.912;10.924;2023-03-01T09:17:31;7.10;93.10
3134;DHT22;1577;49.912;10.924;2023-03-01T09:19:57;6.80;92.60
3134;DHT22;1577;49.912;10.924;2023-03-01T09:22:23;6.60;93.00
3134;DHT22;1577;49.912;10.924;2023-03-01T09:24:48;6.60;93.10
3134;DHT22;1577;49.912;10.924;2023-03-01T09:27:14;6.60;93.00
3134;DHT22;1577;49.912;10.924;2023-03-01T09:29:39;6.60;93.20
3134;DHT22;1577;49.912;10.924;2023-03-01T09:32:05;6.50;93.00
3134;DHT22;1577;49.912;10.924;2023-03-01T09:34:33;6.50;93.20
3134;DHT22;1577;49.912;10.924;2023-03-01T09:37:19;6.60;93.10
3134;DHT22;1577;49.912;10.924;2023-03-01T09:39:44;6.50;92.50
3134;DHT22;1577;49.912;10.924;2023-03-01T09:42:12;6.30;92.50
3134;DHT22;1577;49.912;10.924;2023-03-01T09:44:47;6.20;92.70
3134;DHT22;1577;49.912;10.924;2023-03-01T09:47:18;6.10;93.50
3134;DHT22;1577;49.912;10.924;2023-03-01T09:49:50;6.20;93.20
3134;DHT22;1577;49.912;10.924;2023-03-01T09:52:24;6.10;92.80
3134;DHT22;1577;49.912;10.924;2023-03-01T09:54:55;6.00;93.20
3134;DHT22;1577;49.912;10.924;2023-03-01T09:57:33;6.00;93.40
3134;DHT22;1577;49.912;10.924;2023-03-01T10:06:01;5.60;93.50
3134;DHT22;1577;49.912;10.924;2023-03-01T10:10:57;5.30;94.00
3134;DHT22;1577;49.912;10.924;2023-03-01T10:16:41;5.30;94.10
3134;DHT22;1577;49.912;10.924;2023-03-01T10:19:22;5.20;93.70
3134;DHT22;1577;49.912;10.924;2023-03-01T10:21:49;5.20;94.10
3134;DHT22;1577;49.912;10.924;2023-03-01T10:24:18;5.20;94.20
3134;DHT22;1577;49.912;10.924;2023-03-01T10:26:57;5.20;93.80
3134;DHT22;1577;49.912;10.924;2023-03-01T10:29:40;5.20;94.20
3134;DHT22;1577;49.912;10.924;2023-03-01T10:32:09;5.10;94.20
3134;DHT22;1577;49.912;10.924;2023-03-01T10:34:36;5.20;93.70
3134;DHT22;1577;49.912;10.924;2023-03-01T10:37:22;5.30;93.60
3134;DHT22;1577;49.912;10.924;2023-03-01T10:42:39;5.40;93.20
3134;DHT22;1577;49.912;10.924;2023-03-01T10:45:38;5.40;93.30
3134;DHT22;1577;49.912;10.924;2023-03-01T10:50:38;5.30;93.80
3134;DHT22;1577;49.912;10.924;2023-03-01T10:53:05;5.20;93.80
3134;DHT22;1577;49.912;10.924;2023-03-01T10:55:41;5.20;93.90
3134;DHT22;1577;49.912;10.924;2023-03-01T11:00:33;5.20;94.40
3134;DHT22;1577;49.912;10.924;2023-03-01T11:05:25;5.30;93.80
3134;DHT22;1577;49.912;10.924;2023-03-01T11:07:55;5.30;94.30
3134;DHT22;1577;49.912;10.924;2023-03-01T11:12:47;5.30;94.10
3134;DHT22;1577;49.912;10.924;2023-03-01T11:15:23;5.30;94.50
3134;DHT22;1577;49.912;10.924;2023-03-01T11:17:49;5.30;94.60
3134;DHT22;1577;49.912;10.924;2023-03-01T11:20:19;5.30;94.40
3134;DHT22;1577;49.912;10.924;2023-03-01T11:22:55;5.30;94.30
3134;DHT22;1577;49.912;10.924;2023-03-01T11:25:34;5.30;94.30
3134;DHT22;1577;49.912;10.924;2023-03-01T11:28:04;5.30;94.50
3134;DHT22;1577;49.912;10.924;2023-03-01T11:30:44;5.40;94.40
3134;DHT22;1577;49.912;10.924;2023-03-01T11:33:33;5.50;94.30
3134;DHT22;1577;49.912;10.924;2023-03-01T11:39:18;5.60;94.10
3134;DHT22;1577;49.912;10.924;2023-03-01T11:41:49;5.70;93.70
3134;DHT22;1577;49.912;10.924;2023-03-01T11:44:24;5.70;93.90
3134;DHT22;1577;49.912;10.924;2023-03-01T12:06:34;6.20;93.90
3134;DHT22;1577;49.912;10.924;2023-03-01T12:12:05;6.20;93.50
3134;DHT22;1577;49.912;10.924;2023-03-01T12:17:43;6.20;93.80
3134;DHT22;1577;49.912;10.924;2023-03-01T12:21:21;6.30;93.60
3134;DHT22;1577;49.912;10.924;2023-03-01T12:37:20;6.40;93.40
3134;DHT22;1577;49.912;10.924;2023-03-01T12:42:44;6.50;93.40
3134;DHT22;1577;49.912;10.924;2023-03-01T12:45:34;6.50;93.50
3134;DHT22;1577;49.912;10.924;2023-03-01T12:50:48;6.60;93.20
3134;DHT22;1577;49.912;10.924;2023-03-01T12:53:25;6.60;93.30
3134;DHT22;1577;49.912;10.924;2023-03-01T12:55:54;6.60;93.50
3134;DHT22;1577;49.912;10.924;2023-03-01T13:06:39;6.80;93.20
3134;DHT22;1577;49.912;10.924;2023-03-01T13:11:49;6.80;93.30
3134;DHT22;1577;49.912;10.924;2023-03-01T13:16:48;6.90;93.20
3134;DHT22;1577;49.912;10.924;2023-03-01T13:19:22;6.90;93.10
3134;DHT22;1577;49.912;10.924;2023-03-01T13:21:49;6.90;93.10
3134;DHT22;1577;49.912;10.924;2023-03-01T13:24:36;7.00;93.30
3134;DHT22;1577;49.912;10.924;2023-03-01T13:27:18;7.00;93.30
3134;DHT22;1577;49.912;10.924;2023-03-01T13:32:28;7.10;93.50
3134;DHT22;1577;49.912;10.924;2023-03-01T13:37:45;7.20;93.10
3134;DHT22;1577;49.912;10.924;2023-03-01T13:42:47;7.30;93.10
3134;DHT22;1577;49.912;10.924;2023-03-01T13:45:32;7.40;93.30
3134;DHT22;1577;49.912;10.924;2023-03-01T13:48:08;7.40;93.40
3134;DHT22;1577;49.912;10.924;2023-03-01T13:50:38;7.50;92.80
3134;DHT22;1577;49.912;10.924;2023-03-01T13:53:11;7.60;92.80
3134;DHT22;1577;49.912;10.924;2023-03-01T13:55:47;7.60;92.60
3134;DHT22;1577;49.912;10.924;2023-03-01T13:58:27;7.60;92.70
3134;DHT22;1577;49.912;10.924;2023-03-01T14:01:01;7.60;92.70
3134;DHT22;1577;49.912;10.924;2023-03-01T14:03:28;7.70;92.80
3134;DHT22;1577;49.912;10.924;2023-03-01T14:08:34;7.60;92.60
3134;DHT22;1577;49.912;10.924;2023-03-01T14:11:35;7.60;92.70
3134;DHT22;1577;49.912;10.924;2023-03-01T14:19:33;7.70;92.60
3134;DHT22;1577;49.912;10.924;2023-03-01T14:22:22;7.70;92.90
3134;DHT22;1577;49.912;10.924;2023-03-01T14:24:55;7.70;92.40
3134;DHT22;1577;49.912;10.924;2023-03-01T14:27:21;7.70;92.50
3134;DHT22;1577;49.912;10.924;2023-03-01T14:29:57;7.70;92.50
3134;DHT22;1577;49.912;10.924;2023-03-01T14:32:32;7.70;92.90
3134;DHT22;1577;49.912;10.924;2023-03-01T14:34:59;7.70;92.90
3134;DHT22;1577;49.912;10.924;2023-03-01T14:37:33;7.70;93.20
3134;DHT22;1577;49.912;10.924;2023-03-01T14:40:01;7.80;93.20
3134;DHT22;1577;49.912;10.924;2023-03-01T14:42:31;7.80;92.90
3134;DHT22;1577;49.912;10.924;2023-03-01T14:44:57;7.70;92.90
3134;DHT22;1577;49.912;10.924;2023-03-01T14:47:35;7.70;93.20
3134;DHT22;1577;49.912;10.924;2023-03-01T14:50:14;7.70;93.00
3134;DHT22;1577;49.912;10.924;2023-03-01T14:52:46;7.70;93.10
3134;DHT22;1577;49.912;10.924;2023-03-01T14:55:20;7.70;93.10
3134;DHT22;1577;49.912;10.924;2023-03-01T14:57:50;7.70;93.20
3134;DHT22;1577;49.912;10.924;2023-03-01T15:00:25;7.80;92.90
3134;DHT22;1577;49.912;10.924;2023-03-01T15:02:53;7.90;92.90
3134;DHT22;1577;49.912;10.924;2023-03-01T15:05:39;7.90;93.00
3134;DHT22;1577;49.912;10.924;2023-03-01T15:08:05;7.90;93.00
3134;DHT22;1577;49.912;10.924;2023-03-01T15:10:35;7.80;92.70
3134;DHT22;1577;49.912;10.924;2023-03-01T15:13:21;7.80;92.90
3134;DHT22;1577;49.912;10.924;2023-03-01T15:15:48;7.70;92.90
3134;DHT22;1577;49.912;10.924;2023-03-01T15:18:22;7.70;93.00
3134;DHT22;1577;49.912;10.924;2023-03-01T15:20:51;7.70;93.10
3134;DHT22;1577;49.912;10.924;2023-03-01T15:23:27;7.60;93.30
3134;DHT22;1577;49.912;10.924;2023-03-01T15:25:54;7.70;93.30
3134;DHT22;1577;49.912;10.924;2023-03-01T15:28:32;7.60;93.10
3134;DHT22;1577;49.912;10.924;2023-03-01T15:31:04;7.60;93.10
3134;DHT22;1577;49.912;10.924;2023-03-01T15:33:34;7.50;93.10
3134;DHT22;1577;49.912;10.924;2023-03-01T15:36:03;7.50;93.20
3134;DHT22;1577;49.912;10.924;2023-03-01T15:38:56;7.50;93.40
3134;DHT22;1577;49.912;10.924;2023-03-01T15:41:28;7.50;93.40
3134;DHT22;1577;49.912;10.924;2023-03-01T15:44:00;7.40;93.50
3134;DHT22;1577;49.912;10.924;2023-03-01T15:46:29;7.30;93.60
3134;DHT22;1577;49.912;10.924;2023-03-01T15:48:59;7.30;93.90
3134;DHT22;1577;49.912;10.924;2023-03-01T15:51:31;7.20;93.90
3134;DHT22;1577;49.912;10.924;2023-03-01T15:53:59;7.10;94.00
3134;DHT22;1577;49.912;10.924;2023-03-01T15:56:25;7.10;94.00
3134;DHT22;1577;49.912;10.924;2023-03-01T15:58:51;7.00;94.20
3134;DHT22;1577;49.912;10.924;2023-03-01T16:01:17;6.90;94.30
3134;DHT22;1577;49.912;10.924;2023-03-01T16:03:44;6.80;94.40
3134;DHT22;1577;49.912;10.924;2023-03-01T16:06:13;6.80;94.60
3134;DHT22;1577;49.912;10.924;2023-03-01T16:08:39;6.80;94.80
3134;DHT22;1577;49.912;10.924;2023-03-01T16:11:14;6.70;94.90
3134;DHT22;1577;49.912;10.924;2023-03-01T16:13:40;6.70;95.00
3134;DHT22;1577;49.912;10.924;2023-03-01T16:16:05;6.70;95.10
3134;DHT22;1577;49.912;10.924;2023-03-01T16:18:31;6.70;95.20
3134;DHT22;1577;49.912;10.924;2023-03-01T16:20:57;6.60;95.30
3134;DHT22;1577;49.912;10.924;2023-03-01T16:23:22;6.60;95.50
3134;DHT22;1577;49.912;10.924;2023-03-01T16:25:50;6.50;95.70
3134;DHT22;1577;49.912;10.924;2023-03-01T16:28:16;6.50;96.00
3134;DHT22;1577;49.912;10.924;2023-03-01T16:30:46;6.40;96.30
3134;DHT22;1577;49.912;10.924;2023-03-01T16:33:13;6.40;96.50
3134;DHT22;1577;49.912;10.924;2023-03-01T16:35:40;6.30;96.70
3134;DHT22;1577;49.912;10.924;2023-03-01T16:38:05;6.20;96.90
3134;DHT22;1577;49.912;10.924;2023-03-01T16:40:31;6.10;97.20
3134;DHT22;1577;49.912;10.924;2023-03-01T16:42:58;6.00;97.30
3134;DHT22;1577;49.912;10.924;2023-03-01T16:45:27;5.90;97.40
3134;DHT22;1577;49.912;10.924;2023-03-01T16:47:54;5.90;97.60
3134;DHT22;1577;49.912;10.924;2023-03-01T16:50:19;5.80;97.80
3134;DHT22;1577;49.912;10.924;2023-03-01T16:52:45;5.70;97.90
3134;DHT22;1577;49.912;10.924;2023-03-01T16:55:11;5.70;97.90
3134;DHT22;1577;49.912;10.924;2023-03-01T16:57:37;5.60;98.10
3134;DHT22;1577;49.912;10.924;2023-03-01T17:00:07;5.50;98.30
3134;DHT22;1577;49.912;10.924;2023-03-01T17:02:38;5.50;98.50
3134;DHT22;1577;49.912;10.924;2023-03-01T17:05:05;5.40;98.90
3134;DHT22;1577;49.912;10.924;2023-03-01T17:07:31;5.40;98.70
3134;DHT22;1577;49.912;10.924;2023-03-01T17:10:01;5.30;98.80
3134;DHT22;1577;49.912;10.924;2023-03-01T17:12:27;5.20;99.00
3134;DHT22;1577;49.912;10.924;2023-03-01T17:14:53;5.20;99.10
3134;DHT22;1577;49.912;10.924;2023-03-01T17:17:19;5.10;99.20
3134;DHT22;1577;49.912;10.924;2023-03-01T17:19:44;5.10;99.40
3134;DHT22;1577;49.912;10.924;2023-03-01T17:22:11;5.10;99.60
3134;DHT22;1577;49.912;10.924;2023-03-01T17:24:39;5.00;99.70
3134;DHT22;1577;49.912;10.924;2023-03-01T17:27:06;4.90;99.80
3134;DHT22;1577;49.912;10.924;2023-03-01T17:29:32;4.80;99.90
3134;DHT22;1577;49.912;10.924;2023-03-01T17:31:59;4.80;99.90
3134;DHT22;1577;49.912;10.924;2023-03-01T17:34:25;4.70;99.90
3134;DHT22;1577;49.912;10.924;2023-03-01T17:36:51;4.70;99.90
3134;DHT22;1577;49.912;10.924;2023-03-01T17:39:18;4.60;99.90
3134;DHT22;1577;49.912;10.924;2023-03-01T17:41:54;4.60;99.90
3134;DHT22;1577;49.912;10.924;2023-03-01T17:44:22;4.50;99.90
3134;DHT22;1577;49.912;10.924;2023-03-01T17:46:48;4.50;99.90
3134;DHT22;1577;49.912;10.924;2023-03-01T17:49:14;4.40;99.90
3134;DHT22;1577;49.912;10.924;2023-03-01T17:51:42;4.40;99.90
3134;DHT22;1577;49.912;10.924;2023-03-01T17:54:08;4.30;99.90
3134;DHT22;1577;49.912;10.924;2023-03-01T17:56:34;4.30;99.90
3134;DHT22;1577;49.912;10.924;2023-03-01T17:59:03;4.20;99.90
3134;DHT22;1577;49.912;10.924;2023-03-01T18:01:29;4.20;99.90
3134;DHT22;1577;49.912;10.924;2023-03-01T18:03:54;4.10;99.90
3134;DHT22;1577;49.912;10.924;2023-03-01T18:06:25;4.10;99.90
3134;DHT22;1577;49.912;10.924;2023-03-01T18:08:51;4.10;99.90
3134;DHT22;1577;49.912;10.924;2023-03-01T18:11:19;4.00;99.90
3134;DHT22;1577;49.912;10.924;2023-03-01T18:13:45;4.00;99.90
3134;DHT22;1577;49.912;10.924;2023-03-01T18:16:14;4.00;99.90
3134;DHT22;1577;49.912;10.924;2023-03-01T18:18:40;4.00;99.90
3134;DHT22;1577;49.912;10.924;2023-03-01T18:21:06;3.90;99.90
3134;DHT22;1577;49.912;10.924;2023-03-01T18:23:33;3.90;99.90
3134;DHT22;1577;49.912;10.924;2023-03-01T18:26:01;3.90;99.90
3134;DHT22;1577;49.912;10.924;2023-03-01T18:28:28;3.80;99.90
3134;DHT22;1577;49.912;10.924;2023-03-01T18:31:02;3.80;99.90
3134;DHT22;1577;49.912;10.924;2023-03-01T18:33:30;3.80;99.90
3134;DHT22;1577;49.912;10.924;2023-03-01T18:35:56;3.70;99.90
3134;DHT22;1577;49.912;10.924;2023-03-01T18:38:25;3.70;99.90
3134;DHT22;1577;49.912;10.924;2023-03-01T18:40:51;3.60;99.90
3134;DHT22;1577;49.912;10.924;2023-03-01T18:43:20;3.60;99.90
3134;DHT22;1577;49.912;10.924;2023-03-01T18:45:46;3.50;99.90
3134;DHT22;1577;49.912;10.924;2023-03-01T18:48:12;3.50;99.90
3134;DHT22;1577;49.912;10.924;2023-03-01T18:50:39;3.50;99.90
3134;DHT22;1577;49.912;10.924;2023-03-01T18:53:05;3.50;99.90
3134;DHT22;1577;49.912;10.924;2023-03-01T18:55:34;3.50;99.90
3134;DHT22;1577;49.912;10.924;2023-03-01T18:57:59;3.50;99.90
3134;DHT22;1577;49.912;10.924;2023-03-01T19:00:25;3.50;99.90
3134;DHT22;1577;49.912;10.924;2023-03-01T19:02:51;3.40;99.90
3134;DHT22;1577;49.912;10.924;2023-03-01T19:05:16;3.40;99.90
3134;DHT22;1577;49.912;10.924;2023-03-01T19:07:42;3.30;99.90
3134;DHT22;1577;49.912;10.924;2023-03-01T19:10:08;3.30;99.90
3134;DHT22;1577;49.912;10.924;2023-03-01T19:12:34;3.30;99.90
3134;DHT22;1577;49.912;10.924;2023-03-01T19:15:00;3.30;99.90
3134;DHT22;1577;49.912;10.924;2023-03-01T19:17:26;3.20;99.90
3134;DHT22;1577;49.912;10.924;2023-03-01T19:19:56;3.20;99.90
3134;DHT22;1577;49.912;10.924;2023-03-01T19:22:22;3.20;99.90
3134;DHT22;1577;49.912;10.924;2023-03-01T19:24:48;3.10;99.90
3134;DHT22;1577;49.912;10.924;2023-03-01T19:27:13;3.10;99.90
3134;DHT22;1577;49.912;10.924;2023-03-01T19:29:39;3.00;99.90
3134;DHT22;1577;49.912;10.924;2023-03-01T19:32:05;3.00;99.90
3134;DHT22;1577;49.912;10.924;2023-03-01T19:34:32;3.00;99.90
3134;DHT22;1577;49.912;10.924;2023-03-01T19:37:01;2.90;99.90
3134;DHT22;1577;49.912;10.924;2023-03-01T19:39:27;2.90;99.90
3134;DHT22;1577;49.912;10.924;2023-03-01T19:41:52;2.80;99.90
3134;DHT22;1577;49.912;10.924;2023-03-01T19:44:18;2.80;99.90
3134;DHT22;1577;49.912;10.924;2023-03-01T19:46:53;2.80;99.90
3134;DHT22;1577;49.912;10.924;2023-03-01T19:49:19;2.80;99.90
3134;DHT22;1577;49.912;10.924;2023-03-01T19:51:44;2.80;99.90
3134;DHT22;1577;49.912;10.924;2023-03-01T19:54:10;2.80;99.90
3134;DHT22;1577;49.912;10.924;2023-03-01T19:56:37;2.80;99.90
3134;DHT22;1577;49.912;10.924;2023-03-01T19:59:03;2.80;99.90
3134;DHT22;1577;49.912;10.924;2023-03-01T20:01:29;2.80;99.90
3134;DHT22;1577;49.912;10.924;2023-03-01T20:03:57;2.80;99.90
3134;DHT22;1577;49.912;10.924;2023-03-01T20:06:22;2.80;99.90
3134;DHT22;1577;49.912;10.924;2023-03-01T20:08:50;2.80;99.90
3134;DHT22;1577;49.912;10.924;2023-03-01T20:11:17;2.70;99.90
3134;DHT22;1577;49.912;10.924;2023-03-01T20:13:43;2.70;99.90
3134;DHT22;1577;49.912;10.924;2023-03-01T20:16:09;2.70;99.90
3134;DHT22;1577;49.912;10.924;2023-03-01T20:18:35;2.60;99.90
3134;DHT22;1577;49.912;10.924;2023-03-01T20:21:01;2.70;99.90
3134;DHT22;1577;49.912;10.924;2023-03-01T20:23:27;2.70;99.90
3134;DHT22;1577;49.912;10.924;2023-03-01T20:26:01;2.70;99.90
3134;DHT22;1577;49.912;10.924;2023-03-01T20:28:28;2.70;99.90
3134;DHT22;1577;49.912;10.924;2023-03-01T20:30:53;2.70;99.90
3134;DHT22;1577;49.912;10.924;2023-03-01T20:33:19;2.60;99.90
3134;DHT22;1577;49.912;10.924;2023-03-01T20:35:44;2.60;99.90
3134;DHT22;1577;49.912;10.924;2023-03-01T20:38:10;2.60;99.90
3134;DHT22;1577;49.912;10.924;2023-03-01T20:40:36;2.60;99.90
3134;DHT22;1577;49.912;10.924;2023-03-01T20:43:02;2.40;99.90
3134;DHT22;1577;49.912;10.924;2023-03-01T20:45:28;2.30;99.90
3134;DHT22;1577;49.912;10.924;2023-03-01T20:47:54;2.20;99.90
3134;DHT22;1577;49.912;10.924;2023-03-01T20:50:20;2.10;99.90
3134;DHT22;1577;49.912;10.924;2023-03-01T20:52:46;2.00;99.90
3134;DHT22;1577;49.912;10.924;2023-03-01T20:55:12;2.00;99.90
3134;DHT22;1577;49.912;10.924;2023-03-01T20:57:38;2.00;99.90
3134;DHT22;1577;49.912;10.924;2023-03-01T21:00:05;1.90;99.90
3134;DHT22;1577;49.912;10.924;2023-03-01T21:02:31;1.90;99.90
3134;DHT22;1577;49.912;10.924;2023-03-01T21:04:57;1.80;99.90
3134;DHT22;1577;49.912;10.924;2023-03-01T21:07:22;1.80;99.90
3134;DHT22;1577;49.912;10.924;2023-03-01T21:09:48;1.80;99.90
3134;DHT22;1577;49.912;10.924;2023-03-01T21:12:14;1.60;99.90
3134;DHT22;1577;49.912;10.924;2023-03-01T21:14:39;1.60;99.90
3134;DHT22;1577;49.912;10.924;2023-03-01T21:17:13;1.70;99.90
3134;DHT22;1577;49.912;10.924;2023-03-01T21:19:40;1.70;99.90
3134;DHT22;1577;49.912;10.924;2023-03-01T21:22:08;1.60;99.90
3134;DHT22;1577;49.912;10.924;2023-03-01T21:24:34;1.60;99.90
3134;DHT22;1577;49.912;10.924;2023-03-01T21:27:00;1.60;99.90
3134;DHT22;1577;49.912;10.924;2023-03-01T21:29:37;1.50;99.90
3134;DHT22;1577;49.912;10.924;2023-03-01T21:32:04;1.40;99.90
3134;DHT22;1577;49.912;10.924;2023-03-01T21:34:30;1.50;99.90
3134;DHT22;1577;49.912;10.924;2023-03-01T21:36:55;1.50;99.90
3134;DHT22;1577;49.912;10.924;2023-03-01T21:39:21;1.50;99.90
3134;DHT22;1577;49.912;10.924;2023-03-01T21:41:54;1.60;99.90
3134;DHT22;1577;49.912;10.924;2023-03-01T21:44:21;1.60;99.90
3134;DHT22;1577;49.912;10.924;2023-03-01T21:46:47;1.60;99.90
3134;DHT22;1577;49.912;10.924;2023-03-01T21:49:13;1.60;99.90
3134;DHT22;1577;49.912;10.924;2023-03-01T21:51:39;1.60;99.90
3134;DHT22;1577;49.912;10.924;2023-03-01T21:54:05;1.60;99.90
3134;DHT22;1577;49.912;10.924;2023-03-01T21:56:32;1.50;99.90
3134;DHT22;1577;49.912;10.924;2023-03-01T21:58:59;1.50;99.90
3134;DHT22;1577;49.912;10.924;2023-03-01T22:01:26;1.50;99.90
3134;DHT22;1577;49.912;10.924;2023-03-01T22:03:54;1.50;99.90
3134;DHT22;1577;49.912;10.924;2023-03-01T22:06:23;1.40;99.90
3134;DHT22;1577;49.912;10.924;2023-03-01T22:08:57;1.40;99.90
3134;DHT22;1577;49.912;10.924;2023-03-01T22:11:24;1.30;99.90
3134;DHT22;1577;49.912;10.924;2023-03-01T22:13:54;1.30;99.90
3134;DHT22;1577;49.912;10.924;2023-03-01T22:16:23;1.20;99.90
3134;DHT22;1577;49.912;10.924;2023-03-01T22:18:49;1.10;99.90
3134;DHT22;1577;49.912;10.924;2023-03-01T22:21:15;1.10;99.90
3134;DHT22;1577;49.912;10.924;2023-03-01T22:23:41;1.00;99.90
3134;DHT22;1577;49.912;10.924;2023-03-01T22:26:13;1.00;99.90
3134;DHT22;1577;49.912;10.924;2023-03-01T22:28:44;1.00;99.90
3134;DHT22;1577;49.912;10.924;2023-03-01T22:31:10;1.10;99.90
3134;DHT22;1577;49.912;10.924;2023-03-01T22:33:35;1.10;99.90
3134;DHT22;1577;49.912;10.924;2023-03-01T22:36:01;1.10;99.90
3134;DHT22;1577;49.912;10.924;2023-03-01T22:38:27;1.10;99.90
3134;DHT22;1577;49.912;10.924;2023-03-01T22:40:59;1.20;99.90
3134;DHT22;1577;49.912;10.924;2023-03-01T22:43:26;1.20;99.90
3134;DHT22;1577;49.912;10.924;2023-03-01T22:45:52;1.20;99.90
3134;DHT22;1577;49.912;10.924;2023-03-01T22:48:18;1.20;99.90
3134;DHT22;1577;49.912;10.924;2023-03-01T22:50:44;1.20;99.90
3134;DHT22;1577;49.912;10.924;2023-03-01T22:53:10;1.10;99.90
3134;DHT22;1577;49.912;10.924;2023-03-01T22:55:36;1.00;99.90
3134;DHT22;1577;49.912;10.924;2023-03-01T22:58:02;1.00;99.90
3134;DHT22;1577;49.912;10.924;2023-03-01T23:00:28;1.00;99.90
3134;DHT22;1577;49.912;10.924;2023-03-01T23:02:54;1.10;99.90
3134;DHT22;1577;49.912;10.924;2023-03-01T23:05:19;1.10;99.90
3134;DHT22;1577;49.912;10.924;2023-03-01T23:07:45;1.00;99.90
3134;DHT22;1577;49.912;10.924;2023-03-01T23:10:12;0.90;99.90
3134;DHT22;1577;49.912;10.924;2023-03-01T23:12:38;0.80;99.90
3134;DHT22;1577;49.912;10.924;2023-03-01T23:15:05;0.80;99.90
3134;DHT22;1577;49.912;10.924;2023-03-01T23:17:31;0.80;99.90
3134;DHT22;1577;49.912;10.924;2023-03-01T23:19:57;0.60;99.90
3134;DHT22;1577;49.912;10.924;2023-03-01T23:22:23;0.50;99.90
3134;DHT22;1577;49.912;10.924;2023-03-01T23:24:48;0.50;99.90
3134;DHT22;1577;49.912;10.924;2023-03-01T23:27:14;0.40;99.90
3134;DHT22;1577;49.912;10.924;2023-03-01T23:29:43;0.40;99.90
3134;DHT22;1577;49.912;10.924;2023-03-01T23:32:09;0.50;99.90
3134;DHT22;1577;49.912;10.924;2023-03-01T23:34:35;0.40;99.90
3134;DHT22;1577;49.912;10.924;2023-03-01T23:37:02;0.30;99.90
3134;DHT22;1577;49.912;10.924;2023-03-01T23:39:28;0.20;99.90
3134;DHT22;1577;49.912;10.924;2023-03-01T23:41:55;0.10;99.90
3134;DHT22;1577;49.912;10.924;2023-03-01T23:44:21;0.00;99.90
3134;DHT22;1577;49.912;10.924;2023-03-01T23:46:48;-0.10;99.90
3134;DHT22;1577;49.912;10.924;2023-03-01T23:49:17;-0.10;99.90
3134;DHT22;1577;49.912;10.924;2023-03-01T23:51:44;-0.10;99.90
3134;DHT22;1577;49.912;10.924;2023-03-01T23:54:11;-0.20;99.90
3134;DHT22;1577;49.912;10.924;2023-03-01T23:56:39;-0.20;99.90
3134;DHT22;1577;49.912;10.924;2023-03-01T23:59:24;-0.20;99.90
